createdAt,value
2023-01-19T00:00:46.944Z,85.23
2023-01-19T00:02:03.254Z,85.31
2023-01-19T00:03:10.681Z,85.49
2023-01-19T00:04:13.590Z,85.31
2023-01-19T00:05:16.771Z,85.36
2023-01-19T00:06:20.580Z,85.41
2023-01-19T00:07:23.605Z,85.40
2023-01-19T00:08:26.979Z,85.41
2023-01-19T00:09:33.448Z,85.34
2023-01-19T00:10:36.609Z,85.45
2023-01-19T00:11:39.741Z,85.45
2023-01-19T00:12:42.888Z,85.51
2023-01-19T00:13:49.848Z,85.42
2023-01-19T00:14:52.909Z,85.42
2023-01-19T00:15:56.260Z,85.66
2023-01-19T00:16:59.598Z,85.70
2023-01-19T00:18:02.979Z,85.62
2023-01-19T00:19:06.337Z,85.52
2023-01-19T00:20:10.081Z,85.71
2023-01-19T00:21:17.110Z,85.62
2023-01-19T00:22:19.999Z,85.67
2023-01-19T00:23:23.053Z,85.49
2023-01-19T00:24:26.364Z,85.38
2023-01-19T00:25:29.654Z,85.57
2023-01-19T00:26:32.671Z,85.54
2023-01-19T00:27:35.708Z,85.55
2023-01-19T00:28:38.673Z,85.62
2023-01-19T00:29:41.924Z,85.94
2023-01-19T00:30:45.727Z,85.84
2023-01-19T00:31:48.832Z,85.86
2023-01-19T00:32:51.897Z,85.81
2023-01-19T00:33:54.956Z,85.81
2023-01-19T00:34:58.204Z,85.82
2023-01-19T00:36:01.233Z,85.88
2023-01-19T00:37:04.473Z,85.94
2023-01-19T00:38:07.351Z,85.90
2023-01-19T00:39:10.363Z,85.77
2023-01-19T00:40:14.280Z,85.92
2023-01-19T00:41:17.714Z,86.01
2023-01-19T00:42:39.670Z,85.78
2023-01-19T00:43:42.870Z,86.04
2023-01-19T00:44:45.904Z,85.93
2023-01-19T00:45:49.113Z,85.89
2023-01-19T00:46:52.186Z,85.90
2023-01-19T00:47:57.228Z,85.89
2023-01-19T00:49:00.445Z,85.93
2023-01-19T00:50:03.655Z,86.04
2023-01-19T00:51:06.730Z,86.14
2023-01-19T00:52:09.755Z,86.08
2023-01-19T00:53:13.314Z,86.18
2023-01-19T00:54:16.992Z,86.18
2023-01-19T00:55:20.334Z,86.22
2023-01-19T00:56:23.338Z,86.05
2023-01-19T00:57:27.192Z,86.16
2023-01-19T00:58:30.064Z,86.19
2023-01-19T00:59:33.272Z,86.13
2023-01-19T01:00:36.513Z,86.31
2023-01-19T01:01:45.803Z,86.23
2023-01-19T01:02:51.754Z,86.31
2023-01-19T01:03:56.011Z,86.33
2023-01-19T01:05:02.790Z,86.45
2023-01-19T01:06:08.344Z,86.43
2023-01-19T01:07:11.512Z,86.53
2023-01-19T01:08:14.428Z,86.29
2023-01-19T01:09:17.401Z,86.54
2023-01-19T01:10:23.793Z,86.51
2023-01-19T01:11:26.783Z,86.32
2023-01-19T01:12:29.945Z,86.79
2023-01-19T01:13:33.180Z,86.65
2023-01-19T01:14:36.518Z,86.51
2023-01-19T01:15:39.486Z,86.58
2023-01-19T01:16:42.488Z,86.63
2023-01-19T01:17:49.072Z,86.78
2023-01-19T01:18:52.251Z,86.62
2023-01-19T01:19:55.259Z,86.72
2023-01-19T01:21:06.544Z,86.74
2023-01-19T01:22:10.367Z,86.56
2023-01-19T01:23:14.361Z,86.76
2023-01-19T01:24:18.900Z,86.87
2023-01-19T01:25:23.587Z,86.81
2023-01-19T01:26:27.776Z,86.70
2023-01-19T01:27:30.758Z,86.73
2023-01-19T01:28:33.871Z,86.90
2023-01-19T01:29:36.804Z,86.94
2023-01-19T01:30:41.090Z,86.83
2023-01-19T01:31:44.275Z,86.85
2023-01-19T01:32:47.633Z,87.04
2023-01-19T01:33:50.671Z,86.87
2023-01-19T01:34:53.639Z,86.97
2023-01-19T01:35:56.612Z,86.83
2023-01-19T01:36:59.840Z,86.91
2023-01-19T01:38:03.483Z,87.11
2023-01-19T01:39:06.537Z,87.01
2023-01-19T01:40:12.885Z,86.86
2023-01-19T01:41:16.003Z,86.85
2023-01-19T01:42:25.494Z,86.95
2023-01-19T01:43:49.106Z,87.21
2023-01-19T01:44:55.822Z,87.21
2023-01-19T01:45:58.940Z,87.14
2023-01-19T01:47:03.110Z,87.21
2023-01-19T01:48:12.646Z,87.29
2023-01-19T01:49:17.517Z,87.17
2023-01-19T01:50:26.397Z,87.35
2023-01-19T01:51:34.339Z,87.29
2023-01-19T01:53:06.832Z,87.39
2023-01-19T01:54:25.708Z,87.54
2023-01-19T01:55:31.373Z,87.38
2023-01-19T01:56:38.139Z,87.58
2023-01-19T01:57:46.035Z,87.59
2023-01-19T01:58:49.866Z,87.44
2023-01-19T01:59:52.933Z,87.39
2023-01-19T02:01:15.096Z,87.51
2023-01-19T02:02:41.653Z,87.41
2023-01-19T02:03:44.876Z,87.59
2023-01-19T02:04:53.974Z,87.51
2023-01-19T02:06:01.874Z,87.69
2023-01-19T02:07:23.611Z,87.42
2023-01-19T02:09:02.149Z,87.96
2023-01-19T02:10:24.088Z,87.71
2023-01-19T02:11:47.767Z,87.91
2023-01-19T02:13:09.655Z,88.01
2023-01-19T02:14:12.624Z,88.32
2023-01-19T02:15:18.481Z,88.00
2023-01-19T02:16:21.637Z,88.14
2023-01-19T02:17:24.981Z,88.01
2023-01-19T02:18:30.404Z,88.02
2023-01-19T02:19:43.389Z,88.12
2023-01-19T02:21:09.098Z,88.13
2023-01-19T02:22:16.464Z,88.35
2023-01-19T02:23:42.237Z,88.38
2023-01-19T02:24:45.166Z,88.26
2023-01-19T02:25:49.210Z,88.38
2023-01-19T02:26:52.252Z,88.34
2023-01-19T02:27:55.737Z,88.36
2023-01-19T02:29:02.476Z,88.25
2023-01-19T02:31:39.981Z,88.28
2023-01-19T02:32:43.756Z,88.22
2023-01-19T02:33:46.789Z,88.17
2023-01-19T02:34:50.043Z,88.15
2023-01-19T02:35:55.851Z,88.11
2023-01-19T02:37:06.719Z,88.04
2023-01-19T02:38:10.976Z,88.07
2023-01-19T02:39:15.631Z,87.86
2023-01-19T02:40:20.735Z,87.77
2023-01-19T02:41:29.019Z,87.97
2023-01-19T02:42:44.131Z,87.65
2023-01-19T02:43:49.440Z,87.60
2023-01-19T02:44:54.912Z,87.68
2023-01-19T02:45:58.033Z,87.54
2023-01-19T02:47:01.134Z,87.50
2023-01-19T02:48:05.593Z,87.41
2023-01-19T02:49:08.726Z,87.31
2023-01-19T02:50:37.820Z,87.35
2023-01-19T02:51:44.509Z,87.39
2023-01-19T02:52:48.993Z,87.36
2023-01-19T02:54:20.864Z,87.13
2023-01-19T02:55:28.562Z,87.03
2023-01-19T02:56:37.269Z,86.97
2023-01-19T02:57:49.452Z,86.98
2023-01-19T02:59:20.037Z,86.95
2023-01-19T03:00:42.937Z,86.98
2023-01-19T03:02:09.011Z,86.77
2023-01-19T03:03:38.022Z,86.91
2023-01-19T03:05:04.948Z,86.77
2023-01-19T03:06:33.138Z,86.84
2023-01-19T03:08:01.412Z,86.84
2023-01-19T03:09:29.679Z,86.81
2023-01-19T03:11:05.200Z,86.61
2023-01-19T03:12:23.544Z,86.59
2023-01-19T03:13:39.815Z,86.58
2023-01-19T03:14:47.635Z,86.47
2023-01-19T03:15:56.604Z,86.46
2023-01-19T03:17:05.934Z,86.30
2023-01-19T03:18:12.686Z,86.44
2023-01-19T03:19:22.436Z,86.24
2023-01-19T03:20:29.032Z,86.36
2023-01-19T03:21:35.754Z,86.26
2023-01-19T03:22:39.454Z,86.06
2023-01-19T03:23:45.795Z,86.09
2023-01-19T03:24:51.024Z,86.10
2023-01-19T03:25:57.937Z,85.91
2023-01-19T03:27:06.221Z,85.94
2023-01-19T03:28:09.900Z,85.91
2023-01-19T03:29:15.775Z,85.95
2023-01-19T03:30:26.929Z,85.75
2023-01-19T03:31:32.743Z,85.76
2023-01-19T03:32:41.160Z,85.60
2023-01-19T03:33:50.008Z,85.41
2023-01-19T03:34:54.967Z,85.38
2023-01-19T03:36:05.455Z,85.31
2023-01-19T03:37:11.424Z,85.28
2023-01-19T03:38:24.005Z,85.31
2023-01-19T03:39:28.079Z,85.30
2023-01-19T03:40:33.704Z,85.35
2023-01-19T03:41:38.683Z,85.31
2023-01-19T03:42:44.504Z,85.22
2023-01-19T03:43:50.694Z,85.11
2023-01-19T03:44:56.620Z,85.16
2023-01-19T03:46:01.028Z,85.24
2023-01-19T03:47:07.107Z,85.00
2023-01-19T03:48:10.761Z,85.10
2023-01-19T03:49:14.251Z,85.08
2023-01-19T03:50:25.707Z,84.93
2023-01-19T03:51:28.736Z,84.71
2023-01-19T03:52:36.331Z,84.81
2023-01-19T03:53:39.421Z,84.74
2023-01-19T03:54:43.524Z,84.73
2023-01-19T03:55:48.614Z,84.66
2023-01-19T03:56:52.624Z,84.56
2023-01-19T03:57:55.724Z,84.57
2023-01-19T03:58:59.113Z,84.40
2023-01-19T04:00:02.201Z,84.46
2023-01-19T04:01:16.123Z,84.42
2023-01-19T04:02:19.888Z,84.48
2023-01-19T04:03:23.199Z,84.58
2023-01-19T04:04:26.178Z,84.39
2023-01-19T04:05:29.540Z,84.44
2023-01-19T04:06:32.444Z,84.43
2023-01-19T04:07:35.457Z,84.41
2023-01-19T04:08:38.773Z,84.35
2023-01-19T04:09:41.764Z,84.12
2023-01-19T04:10:44.692Z,84.32
2023-01-19T04:11:47.596Z,84.08
2023-01-19T04:12:59.313Z,84.10
2023-01-19T04:14:02.706Z,84.00
2023-01-19T04:15:07.096Z,83.93
2023-01-19T04:16:11.360Z,83.99
2023-01-19T04:17:14.443Z,83.97
2023-01-19T04:18:17.526Z,83.79
2023-01-19T04:19:20.855Z,83.84
2023-01-19T04:20:23.845Z,83.95
2023-01-19T04:21:26.727Z,83.86
2023-01-19T04:22:30.504Z,83.74
2023-01-19T04:23:34.221Z,83.83
2023-01-19T04:24:37.319Z,83.66
2023-01-19T04:25:40.448Z,83.62
2023-01-19T04:26:43.838Z,83.63
2023-01-19T04:27:46.821Z,83.41
2023-01-19T04:28:49.858Z,83.43
2023-01-19T04:29:53.232Z,83.46
2023-01-19T04:30:56.443Z,83.66
2023-01-19T04:31:59.537Z,83.49
2023-01-19T04:33:03.360Z,83.40
2023-01-19T04:34:06.550Z,83.39
2023-01-19T04:35:09.684Z,83.21
2023-01-19T04:36:12.750Z,83.07
2023-01-19T04:37:15.745Z,83.08
2023-01-19T04:38:20.052Z,83.09
2023-01-19T04:39:23.177Z,83.18
2023-01-19T04:40:26.335Z,83.11
2023-01-19T04:41:31.063Z,83.30
2023-01-19T04:42:34.291Z,83.15
2023-01-19T04:43:37.979Z,83.27
2023-01-19T04:44:40.880Z,83.29
2023-01-19T04:45:46.642Z,83.11
2023-01-19T04:46:51.536Z,83.02
2023-01-19T04:47:54.525Z,82.86
2023-01-19T04:48:57.509Z,82.93
2023-01-19T04:50:00.523Z,82.84
2023-01-19T04:51:03.744Z,82.82
2023-01-19T04:52:06.955Z,82.90
2023-01-19T04:53:10.995Z,82.71
2023-01-19T04:54:14.058Z,82.65
2023-01-19T04:55:18.489Z,82.81
2023-01-19T04:56:21.607Z,82.72
2023-01-19T04:57:24.541Z,82.57
2023-01-19T04:58:27.499Z,82.66
2023-01-19T04:59:30.542Z,82.54
2023-01-19T05:00:34.395Z,82.67
2023-01-19T05:01:37.622Z,82.63
2023-01-19T05:02:42.831Z,82.59
2023-01-19T05:03:46.683Z,82.58
2023-01-19T05:04:49.805Z,82.82
2023-01-19T05:05:52.837Z,82.64
2023-01-19T05:06:56.120Z,82.44
2023-01-19T05:07:59.036Z,82.64
2023-01-19T05:09:03.578Z,82.61
2023-01-19T05:10:07.286Z,82.67
2023-01-19T05:11:10.173Z,82.67
2023-01-19T05:12:13.148Z,82.75
2023-01-19T05:13:16.165Z,82.61
2023-01-19T05:14:19.173Z,82.81
2023-01-19T05:15:22.176Z,82.88
2023-01-19T05:16:25.337Z,82.78
2023-01-19T05:17:28.659Z,82.64
2023-01-19T05:18:36.118Z,82.49
2023-01-19T05:19:39.241Z,82.50
2023-01-19T05:20:42.242Z,82.44
2023-01-19T05:21:45.140Z,82.48
2023-01-19T05:22:54.569Z,82.50
2023-01-19T05:23:57.590Z,82.47
2023-01-19T05:25:01.683Z,82.62
2023-01-19T05:26:05.214Z,82.56
2023-01-19T05:27:08.496Z,82.47
2023-01-19T05:28:11.656Z,82.45
2023-01-19T05:29:14.761Z,82.52
2023-01-19T05:30:18.030Z,82.59
2023-01-19T05:31:21.023Z,82.50
2023-01-19T05:32:24.709Z,82.51
2023-01-19T05:33:28.219Z,82.56
2023-01-19T05:34:31.176Z,82.51
2023-01-19T05:35:36.227Z,82.54
2023-01-19T05:36:39.749Z,82.64
2023-01-19T05:37:43.063Z,82.68
2023-01-19T05:38:46.584Z,82.55
2023-01-19T05:39:49.678Z,82.80
2023-01-19T05:40:57.936Z,82.79
2023-01-19T05:42:00.900Z,82.76
2023-01-19T05:43:05.303Z,82.85
2023-01-19T05:44:09.642Z,82.67
2023-01-19T05:45:12.907Z,82.77
2023-01-19T05:46:16.007Z,82.68
2023-01-19T05:47:19.152Z,82.72
2023-01-19T05:48:22.218Z,82.77
2023-01-19T05:49:25.480Z,82.89
2023-01-19T05:50:28.602Z,82.80
2023-01-19T05:51:35.023Z,82.95
2023-01-19T05:52:37.964Z,82.97
2023-01-19T05:53:41.016Z,82.72
2023-01-19T05:54:44.176Z,82.69
2023-01-19T05:55:47.128Z,82.77
2023-01-19T05:56:50.081Z,82.79
2023-01-19T05:57:53.112Z,82.76
2023-01-19T05:58:56.122Z,82.75
2023-01-19T05:59:59.166Z,82.86
2023-01-19T06:01:05.589Z,82.73
2023-01-19T06:02:08.939Z,82.76
2023-01-19T06:03:12.612Z,82.72
2023-01-19T06:04:15.587Z,82.85
2023-01-19T06:05:18.684Z,82.86
2023-01-19T06:06:21.576Z,82.88
2023-01-19T06:07:25.644Z,82.86
2023-01-19T06:08:30.179Z,82.98
2023-01-19T06:09:33.717Z,82.94
2023-01-19T06:10:36.911Z,82.86
2023-01-19T06:11:39.927Z,82.91
2023-01-19T06:12:42.948Z,82.88
2023-01-19T06:13:46.875Z,83.13
2023-01-19T06:14:49.968Z,82.97
2023-01-19T06:15:58.148Z,83.21
2023-01-19T06:17:01.192Z,83.21
2023-01-19T06:18:04.301Z,83.11
2023-01-19T06:19:07.685Z,83.27
2023-01-19T06:20:11.382Z,83.26
2023-01-19T06:21:14.732Z,83.06
2023-01-19T06:22:17.785Z,83.09
2023-01-19T06:23:21.087Z,83.21
2023-01-19T06:24:25.112Z,83.16
2023-01-19T06:25:28.137Z,83.14
2023-01-19T06:26:31.334Z,83.22
2023-01-19T06:27:34.472Z,83.24
2023-01-19T06:28:37.525Z,83.36
2023-01-19T06:29:41.161Z,83.34
2023-01-19T06:30:48.846Z,83.18
2023-01-19T06:31:52.420Z,83.48
2023-01-19T06:32:55.355Z,83.35
2023-01-19T06:33:58.283Z,83.56
2023-01-19T06:35:01.311Z,83.64
2023-01-19T06:36:04.699Z,83.53
2023-01-19T06:37:07.993Z,83.73
2023-01-19T06:38:11.138Z,83.52
2023-01-19T06:39:14.152Z,83.63
2023-01-19T06:40:17.432Z,83.65
2023-01-19T06:41:20.391Z,83.57
2023-01-19T06:42:23.742Z,83.52
2023-01-19T06:43:27.142Z,83.62
2023-01-19T06:44:30.120Z,83.61
2023-01-19T06:45:33.609Z,83.80
2023-01-19T06:46:36.607Z,83.84
2023-01-19T06:47:39.921Z,83.68
2023-01-19T06:48:42.885Z,83.88
2023-01-19T06:49:46.020Z,83.98
2023-01-19T06:50:49.061Z,84.02
2023-01-19T06:51:52.340Z,83.94
2023-01-19T06:52:55.670Z,83.97
2023-01-19T06:53:59.107Z,84.01
2023-01-19T06:55:02.192Z,83.95
2023-01-19T06:56:06.348Z,84.11
2023-01-19T06:57:11.954Z,83.91
2023-01-19T06:58:16.196Z,84.02
2023-01-19T06:59:19.204Z,84.09
2023-01-19T07:00:22.305Z,84.08
2023-01-19T07:01:25.553Z,84.07
2023-01-19T07:02:29.067Z,84.10
2023-01-19T07:03:34.021Z,84.13
2023-01-19T07:04:36.980Z,84.13
2023-01-19T07:05:39.889Z,83.90
2023-01-19T07:06:42.846Z,84.02
2023-01-19T07:07:52.193Z,84.25
2023-01-19T07:08:55.425Z,84.08
2023-01-19T07:09:58.678Z,84.39
2023-01-19T07:11:25.651Z,84.32
2023-01-19T07:12:30.694Z,84.33
2023-01-19T07:13:35.347Z,84.33
2023-01-19T07:14:39.074Z,84.33
2023-01-19T07:15:42.071Z,84.54
2023-01-19T07:16:45.376Z,84.54
2023-01-19T07:17:48.390Z,84.58
2023-01-19T07:18:51.852Z,84.59
2023-01-19T07:19:55.218Z,84.63
2023-01-19T07:20:58.762Z,84.95
2023-01-19T07:22:03.195Z,84.70
2023-01-19T07:23:06.229Z,84.75
2023-01-19T07:24:09.272Z,84.73
2023-01-19T07:25:13.770Z,84.78
2023-01-19T07:26:19.908Z,84.59
2023-01-19T07:27:25.425Z,84.82
2023-01-19T07:28:29.718Z,84.82
2023-01-19T07:29:32.866Z,84.58
2023-01-19T07:30:36.009Z,84.62
2023-01-19T07:31:39.587Z,84.48
2023-01-19T07:32:42.888Z,84.76
2023-01-19T07:33:46.549Z,84.65
2023-01-19T07:34:49.434Z,84.62
2023-01-19T07:35:53.245Z,84.53
2023-01-19T07:36:56.602Z,84.80
2023-01-19T07:37:59.618Z,84.72
2023-01-19T07:39:02.565Z,84.79
2023-01-19T07:40:06.041Z,84.94
2023-01-19T07:41:10.061Z,84.77
2023-01-19T07:42:13.258Z,84.74
2023-01-19T07:43:16.973Z,84.84
2023-01-19T07:44:19.845Z,84.94
2023-01-19T07:45:23.116Z,84.73
2023-01-19T07:46:26.284Z,84.81
2023-01-19T07:47:29.310Z,84.81
2023-01-19T07:48:32.250Z,85.10
2023-01-19T07:49:36.561Z,84.97
2023-01-19T07:50:39.660Z,85.01
2023-01-19T07:51:43.722Z,85.09
2023-01-19T07:52:47.411Z,85.03
2023-01-19T07:53:51.178Z,85.07
2023-01-19T07:54:54.207Z,84.97
2023-01-19T07:55:57.550Z,84.89
2023-01-19T07:57:00.882Z,84.84
2023-01-19T07:58:07.223Z,85.07
2023-01-19T07:59:10.902Z,85.21
2023-01-19T08:00:14.643Z,85.25
2023-01-19T08:01:18.399Z,85.22
2023-01-19T08:02:21.724Z,85.04
2023-01-19T08:03:25.059Z,84.89
2023-01-19T08:04:28.861Z,84.91
2023-01-19T08:05:33.362Z,84.95
2023-01-19T08:06:38.731Z,84.96
2023-01-19T08:07:41.740Z,85.19
2023-01-19T08:08:44.633Z,85.19
2023-01-19T08:09:47.609Z,85.16
2023-01-19T08:10:51.792Z,85.26
2023-01-19T08:11:55.067Z,85.19
2023-01-19T08:12:59.368Z,85.05
2023-01-19T08:14:02.610Z,85.03
2023-01-19T08:15:07.397Z,85.06
2023-01-19T08:16:10.507Z,85.12
2023-01-19T08:17:14.333Z,84.86
2023-01-19T08:18:18.111Z,85.02
2023-01-19T08:19:21.404Z,85.03
2023-01-19T08:20:25.380Z,85.23
2023-01-19T08:21:28.392Z,85.11
2023-01-19T08:22:31.483Z,85.24
2023-01-19T08:23:34.980Z,85.06
2023-01-19T08:24:38.437Z,85.00
2023-01-19T08:25:44.601Z,84.92
2023-01-19T08:26:47.776Z,84.92
2023-01-19T08:27:54.720Z,84.90
2023-01-19T08:29:00.271Z,84.81
2023-01-19T08:30:03.418Z,84.57
2023-01-19T08:31:19.235Z,84.60
2023-01-19T08:32:23.992Z,84.77
2023-01-19T08:33:26.997Z,84.78
2023-01-19T08:34:33.025Z,84.90
2023-01-19T08:35:38.560Z,84.77
2023-01-19T08:36:42.092Z,84.98
2023-01-19T08:37:44.976Z,84.89
2023-01-19T08:38:48.324Z,84.66
2023-01-19T08:39:53.672Z,84.98
2023-01-19T08:40:56.631Z,84.77
2023-01-19T08:42:00.831Z,85.02
2023-01-19T08:43:09.383Z,85.14
2023-01-19T08:44:12.425Z,85.04
2023-01-19T08:45:15.645Z,84.97
2023-01-19T08:46:20.856Z,85.14
2023-01-19T08:47:23.936Z,85.25
2023-01-19T08:48:27.057Z,85.06
2023-01-19T08:49:30.753Z,84.93
2023-01-19T08:50:34.639Z,84.91
2023-01-19T08:51:38.216Z,85.08
2023-01-19T08:52:41.184Z,85.14
2023-01-19T08:53:44.181Z,85.13
2023-01-19T08:54:47.228Z,85.30
2023-01-19T08:55:50.946Z,85.01
2023-01-19T08:56:54.115Z,85.21
2023-01-19T08:58:00.290Z,85.39
2023-01-19T08:59:09.487Z,85.42
2023-01-19T09:00:14.552Z,85.11
2023-01-19T09:01:20.371Z,84.99
2023-01-19T09:02:23.488Z,85.16
2023-01-19T09:03:26.686Z,85.16
2023-01-19T09:04:29.844Z,85.24
2023-01-19T09:05:37.334Z,85.38
2023-01-19T09:06:40.628Z,85.29
2023-01-19T09:07:46.524Z,85.55
2023-01-19T09:08:49.467Z,85.50
2023-01-19T09:09:52.567Z,85.11
2023-01-19T09:10:55.625Z,85.31
2023-01-19T09:11:58.879Z,85.20
2023-01-19T09:13:05.989Z,85.30
2023-01-19T09:14:09.235Z,85.01
2023-01-19T09:15:14.035Z,85.15
2023-01-19T09:16:17.176Z,85.19
2023-01-19T09:17:20.334Z,85.08
2023-01-19T09:18:23.337Z,85.01
2023-01-19T09:19:26.302Z,84.99
2023-01-19T09:20:31.214Z,84.98
2023-01-19T09:21:34.339Z,84.80
2023-01-19T09:22:39.732Z,84.81
2023-01-19T09:23:42.767Z,84.64
2023-01-19T09:24:45.972Z,84.39
2023-01-19T09:25:49.753Z,84.52
2023-01-19T09:26:52.897Z,84.49
2023-01-19T09:27:56.266Z,84.60
2023-01-19T09:28:59.846Z,84.46
2023-01-19T09:30:04.483Z,84.57
2023-01-19T09:31:08.701Z,84.65
2023-01-19T09:32:11.760Z,84.72
2023-01-19T09:33:17.129Z,84.83
2023-01-19T09:34:21.020Z,84.67
2023-01-19T09:35:24.053Z,84.53
2023-01-19T09:36:26.969Z,84.70
2023-01-19T09:37:29.883Z,84.70
2023-01-19T09:38:34.115Z,84.79
2023-01-19T09:39:37.246Z,84.80
2023-01-19T09:40:48.656Z,84.69
2023-01-19T09:42:06.928Z,84.76
2023-01-19T09:43:26.488Z,84.62
2023-01-19T09:44:33.649Z,84.58
2023-01-19T09:45:46.232Z,84.62
2023-01-19T09:46:49.306Z,84.44
2023-01-19T09:47:53.599Z,84.73
2023-01-19T09:49:11.511Z,84.48
2023-01-19T09:50:28.664Z,84.33
2023-01-19T09:51:41.181Z,84.47
2023-01-19T09:52:54.200Z,84.37
2023-01-19T09:54:05.262Z,84.40
2023-01-19T09:55:21.115Z,84.39
2023-01-19T09:56:25.076Z,84.19
2023-01-19T09:57:30.079Z,84.29
2023-01-19T09:58:35.450Z,84.12
2023-01-19T09:59:39.052Z,84.11
2023-01-19T10:00:56.496Z,84.06
2023-01-19T10:02:18.109Z,83.99
2023-01-19T10:03:23.566Z,83.94
2023-01-19T10:04:43.008Z,83.89
2023-01-19T10:05:58.939Z,84.01
2023-01-19T10:07:25.585Z,83.51
2023-01-19T10:08:41.099Z,83.32
2023-01-19T10:10:12.007Z,83.51
2023-01-19T10:11:41.855Z,83.41
2023-01-19T10:13:14.311Z,83.73
2023-01-19T10:14:25.909Z,83.47
2023-01-19T10:15:28.946Z,83.30
2023-01-19T10:16:53.395Z,83.68
2023-01-19T10:18:11.990Z,83.36
2023-01-19T10:19:29.625Z,83.27
2023-01-19T10:20:39.965Z,83.09
2023-01-19T10:21:45.478Z,83.01
2023-01-19T10:22:50.701Z,82.92
2023-01-19T10:24:06.207Z,82.71
2023-01-19T10:25:17.630Z,82.33
2023-01-19T10:26:37.434Z,82.55
2023-01-19T10:27:40.885Z,82.27
2023-01-19T10:28:46.965Z,82.23
2023-01-19T10:29:50.243Z,81.83
2023-01-19T10:30:56.098Z,82.13
2023-01-19T10:32:08.372Z,81.59
2023-01-19T10:33:13.907Z,81.57
2023-01-19T10:34:23.329Z,81.77
2023-01-19T10:35:26.933Z,81.68
2023-01-19T10:36:38.636Z,81.60
2023-01-19T10:37:42.030Z,81.69
2023-01-19T10:38:46.893Z,81.56
2023-01-19T10:39:55.964Z,81.50
2023-01-19T10:41:04.929Z,81.42
2023-01-19T10:42:12.823Z,81.30
2023-01-19T10:43:34.333Z,80.98
2023-01-19T10:44:37.896Z,80.97
2023-01-19T10:45:41.089Z,80.96
2023-01-19T10:46:46.982Z,80.48
2023-01-19T10:47:50.776Z,80.36
2023-01-19T10:48:55.298Z,80.33
2023-01-19T10:49:58.360Z,80.42
2023-01-19T10:51:03.660Z,79.94
2023-01-19T10:52:19.065Z,80.06
2023-01-19T10:53:22.745Z,79.80
2023-01-19T10:54:27.867Z,79.83
2023-01-19T10:55:34.210Z,79.43
2023-01-19T10:56:38.577Z,79.48
2023-01-19T10:57:43.509Z,79.33
2023-01-19T10:58:46.690Z,79.12
2023-01-19T10:59:51.549Z,78.76
2023-01-19T11:00:54.739Z,78.57
2023-01-19T11:02:04.316Z,78.61
2023-01-19T11:03:30.046Z,78.36
2023-01-19T11:04:33.050Z,77.83
2023-01-19T11:05:36.014Z,76.77
2023-01-19T11:06:38.897Z,77.73
2023-01-19T11:07:41.967Z,77.47
2023-01-19T11:08:47.444Z,77.51
2023-01-19T11:10:10.706Z,76.83
2023-01-19T11:11:14.023Z,76.60
2023-01-19T11:12:20.907Z,76.31
2023-01-19T11:13:23.952Z,76.25
2023-01-19T11:14:31.286Z,76.85
2023-01-19T11:15:36.220Z,76.47
2023-01-19T11:16:40.634Z,76.35
2023-01-19T11:17:48.178Z,76.18
2023-01-19T11:18:56.791Z,76.64
2023-01-19T11:20:02.534Z,75.97
2023-01-19T11:21:12.996Z,75.41
2023-01-19T11:22:22.917Z,76.19
2023-01-19T11:23:29.728Z,75.99
2023-01-19T11:24:33.025Z,76.08
2023-01-19T11:25:37.246Z,76.34
2023-01-19T11:26:48.907Z,76.22
2023-01-19T11:27:52.160Z,76.46
2023-01-19T11:28:57.140Z,76.50
2023-01-19T11:30:08.193Z,75.99
2023-01-19T11:31:11.614Z,75.90
2023-01-19T11:32:22.991Z,75.96
2023-01-19T11:33:37.966Z,75.78
2023-01-19T11:34:40.913Z,76.07
2023-01-19T11:35:44.040Z,75.52
2023-01-19T11:36:57.994Z,75.63
2023-01-19T11:38:12.911Z,75.98
2023-01-19T11:39:23.756Z,76.00
2023-01-19T11:40:26.708Z,75.43
2023-01-19T11:41:34.111Z,75.61
2023-01-19T11:42:37.423Z,75.78
2023-01-19T11:43:49.028Z,75.50
2023-01-19T11:45:03.141Z,75.68
2023-01-19T11:46:06.128Z,75.11
2023-01-19T11:47:18.920Z,75.00
2023-01-19T11:48:32.415Z,75.41
2023-01-19T11:49:58.487Z,75.32
2023-01-19T11:51:05.004Z,72.74
2023-01-19T11:52:18.019Z,73.64
2023-01-19T11:53:24.434Z,71.97
2023-01-19T11:54:35.040Z,72.64
2023-01-19T11:55:47.226Z,73.17
2023-01-19T11:56:52.309Z,72.96
2023-01-19T11:57:55.322Z,73.26
2023-01-19T11:58:58.711Z,72.61
2023-01-19T12:00:17.952Z,71.40
2023-01-19T12:01:29.223Z,71.44
2023-01-19T12:02:45.612Z,71.95
2023-01-19T12:03:59.194Z,71.94
2023-01-19T12:05:11.357Z,71.93
2023-01-19T12:06:20.239Z,71.62
2023-01-19T12:07:30.355Z,71.93
2023-01-19T12:08:39.749Z,71.61
2023-01-19T12:09:48.874Z,71.35
2023-01-19T12:10:54.178Z,70.49
2023-01-19T12:12:08.243Z,71.06
2023-01-19T12:13:20.528Z,69.34
2023-01-19T12:14:33.207Z,70.86
2023-01-19T12:15:42.036Z,70.74
2023-01-19T12:16:46.478Z,69.34
2023-01-19T12:17:52.181Z,68.96
2023-01-19T12:19:12.542Z,68.99
2023-01-19T12:20:21.850Z,68.28
2023-01-19T12:21:25.344Z,68.17
2023-01-19T12:22:30.313Z,68.82
2023-01-19T12:23:39.126Z,68.87
2023-01-19T12:24:51.838Z,68.56
2023-01-19T12:26:33.485Z,67.98
2023-01-19T12:27:42.709Z,68.24
2023-01-19T12:28:51.110Z,67.36
2023-01-19T12:29:55.102Z,67.66
2023-01-19T12:31:00.667Z,67.90
2023-01-19T12:32:34.377Z,67.82
2023-01-19T12:33:39.471Z,67.06
2023-01-19T12:34:47.647Z,67.81
2023-01-19T12:35:58.114Z,67.95
2023-01-19T12:37:03.884Z,67.48
2023-01-19T12:38:46.590Z,68.07
2023-01-19T12:39:49.838Z,68.11
2023-01-19T12:41:20.976Z,68.29
2023-01-19T12:42:25.090Z,68.33
2023-01-19T12:43:28.027Z,67.81
2023-01-19T12:44:34.440Z,68.37
2023-01-19T12:45:39.916Z,68.45
2023-01-19T12:46:49.455Z,68.40
2023-01-19T12:47:54.355Z,68.20
2023-01-19T12:49:07.104Z,68.27
2023-01-19T12:50:19.464Z,68.15
2023-01-19T12:51:24.364Z,68.28
2023-01-19T12:52:30.600Z,68.36
2023-01-19T12:53:33.692Z,68.23
2023-01-19T12:54:38.042Z,67.15
2023-01-19T12:55:46.924Z,66.16
2023-01-19T12:56:56.639Z,66.70
2023-01-19T12:58:08.404Z,66.34
2023-01-19T12:59:25.639Z,66.70
2023-01-19T13:00:32.720Z,66.60
2023-01-19T13:01:35.985Z,66.99
2023-01-19T13:02:45.287Z,65.73
2023-01-19T13:04:09.775Z,66.41
2023-01-19T13:05:44.923Z,66.05
2023-01-19T13:06:48.310Z,66.65
2023-01-19T13:08:06.762Z,66.00
2023-01-19T13:09:29.977Z,66.02
2023-01-19T13:10:53.065Z,66.27
2023-01-19T13:12:15.177Z,66.27
2023-01-19T13:13:28.648Z,66.09
2023-01-19T13:14:36.996Z,64.91
2023-01-19T13:15:40.112Z,65.00
2023-01-19T13:16:54.917Z,65.04
2023-01-19T13:17:58.289Z,64.63
2023-01-19T13:19:07.227Z,65.22
2023-01-19T13:20:25.006Z,64.48
2023-01-19T13:21:34.266Z,63.75
2023-01-19T13:22:51.514Z,64.14
2023-01-19T13:23:58.310Z,63.63
2023-01-19T13:25:08.323Z,63.89
2023-01-19T13:26:15.618Z,63.23
2023-01-19T13:27:18.665Z,63.25
2023-01-19T13:28:32.097Z,63.55
2023-01-19T13:29:43.166Z,63.72
2023-01-19T13:30:55.501Z,63.30
2023-01-19T13:32:04.180Z,63.59
2023-01-19T13:33:19.171Z,63.34
2023-01-19T13:34:27.854Z,63.19
2023-01-19T13:35:31.347Z,62.90
2023-01-19T13:36:41.454Z,62.49
2023-01-19T13:37:45.618Z,62.40
2023-01-19T13:38:50.939Z,62.12
2023-01-19T13:39:54.854Z,61.98
2023-01-19T13:41:01.841Z,62.15
2023-01-19T13:42:16.222Z,62.70
2023-01-19T13:43:31.912Z,62.79
2023-01-19T13:44:43.884Z,62.17
2023-01-19T13:45:52.384Z,62.79
2023-01-19T13:46:59.749Z,63.02
2023-01-19T13:48:07.118Z,63.11
2023-01-19T13:49:38.932Z,62.84
2023-01-19T13:50:43.448Z,63.19
2023-01-19T13:51:47.918Z,63.05
2023-01-19T13:52:54.920Z,63.64
2023-01-19T13:54:01.638Z,63.28
2023-01-19T13:55:05.827Z,63.10
2023-01-19T13:56:18.281Z,63.41
2023-01-19T13:57:28.357Z,63.65
2023-01-19T13:58:32.037Z,63.76
2023-01-19T13:59:35.340Z,64.09
2023-01-19T14:00:38.557Z,64.37
2023-01-19T14:01:48.015Z,64.32
2023-01-19T14:02:53.943Z,64.64
2023-01-19T14:03:57.947Z,64.94
2023-01-19T14:05:23.008Z,65.16
2023-01-19T14:06:44.650Z,65.03
2023-01-19T14:07:48.036Z,65.11
2023-01-19T14:09:18.698Z,65.33
2023-01-19T14:10:22.110Z,65.44
2023-01-19T14:11:25.060Z,65.46
2023-01-19T14:12:28.031Z,65.68
2023-01-19T14:13:33.347Z,65.97
2023-01-19T14:14:36.807Z,65.96
2023-01-19T14:15:43.392Z,66.05
2023-01-19T14:16:46.557Z,66.42
2023-01-19T14:18:16.051Z,66.60
2023-01-19T14:19:19.101Z,66.93
2023-01-19T14:20:30.212Z,67.15
2023-01-19T14:21:40.868Z,67.28
2023-01-19T14:22:46.891Z,67.46